sensor_id;sensor_type;location;lat;lon;timestamp;P1;durP1;ratioP1;P2;durP2;ratioP2
16115;SDS011;8162;47.104;15.432;2024-03-23T00:52:39;4.43;;;3.70;;
16115;SDS011;8162;47.104;15.432;2024-03-23T00:55:40;5.80;;;3.40;;
16115;SDS011;8162;47.104;15.432;2024-03-23T00:58:41;5.30;;;3.33;;
16115;SDS011;8162;47.104;15.432;2024-03-23T01:01:41;4.77;;;3.87;;
16115;SDS011;8162;47.104;15.432;2024-03-23T01:04:42;4.20;;;3.60;;
16115;SDS011;8162;47.104;15.432;2024-03-23T01:07:43;4.03;;;3.47;;
16115;SDS011;8162;47.104;15.432;2024-03-23T01:10:53;5.43;;;3.40;;
16115;SDS011;8162;47.104;15.432;2024-03-23T01:13:57;4.67;;;3.60;;
16115;SDS011;8162;47.104;15.432;2024-03-23T01:16:57;4.10;;;3.50;;
16115;SDS011;8162;47.104;15.432;2024-03-23T01:19:58;5.90;;;3.30;;
16115;SDS011;8162;47.104;15.432;2024-03-23T01:22:59;4.60;;;3.53;;
16115;SDS011;8162;47.104;15.432;2024-03-23T01:25:59;6.17;;;3.70;;
16115;SDS011;8162;47.104;15.432;2024-03-23T01:29:00;5.60;;;3.63;;
16115;SDS011;8162;47.104;15.432;2024-03-23T01:32:01;5.17;;;3.50;;
16115;SDS011;8162;47.104;15.432;2024-03-23T01:35:01;8.03;;;3.77;;
16115;SDS011;8162;47.104;15.432;2024-03-23T01:38:02;4.90;;;3.33;;
16115;SDS011;8162;47.104;15.432;2024-03-23T01:41:03;6.30;;;3.80;;
16115;SDS011;8162;47.104;15.432;2024-03-23T01:44:05;5.67;;;3.80;;
16115;SDS011;8162;47.104;15.432;2024-03-23T01:47:08;5.40;;;4.00;;
16115;SDS011;8162;47.104;15.432;2024-03-23T01:50:09;4.80;;;3.93;;
16115;SDS011;8162;47.104;15.432;2024-03-23T01:53:10;5.13;;;3.40;;
16115;SDS011;8162;47.104;15.432;2024-03-23T01:56:12;8.33;;;3.90;;
16115;SDS011;8162;47.104;15.432;2024-03-23T01:59:13;7.20;;;3.80;;
16115;SDS011;8162;47.104;15.432;2024-03-23T02:02:14;4.37;;;3.67;;
16115;SDS011;8162;47.104;15.432;2024-03-23T02:05:14;3.43;;;3.13;;
16115;SDS011;8162;47.104;15.432;2024-03-23T02:08:16;6.37;;;4.10;;
16115;SDS011;8162;47.104;15.432;2024-03-23T02:11:18;5.07;;;3.97;;
16115;SDS011;8162;47.104;15.432;2024-03-23T02:14:18;5.13;;;3.30;;
16115;SDS011;8162;47.104;15.432;2024-03-23T02:17:19;6.40;;;3.90;;
16115;SDS011;8162;47.104;15.432;2024-03-23T02:20:20;4.37;;;3.80;;
16115;SDS011;8162;47.104;15.432;2024-03-23T02:23:20;6.63;;;3.93;;
16115;SDS011;8162;47.104;15.432;2024-03-23T02:26:21;3.93;;;3.53;;
16115;SDS011;8162;47.104;15.432;2024-03-23T02:29:22;5.27;;;3.40;;
16115;SDS011;8162;47.104;15.432;2024-03-23T02:32:22;5.33;;;3.87;;
16115;SDS011;8162;47.104;15.432;2024-03-23T02:35:23;5.87;;;4.17;;
16115;SDS011;8162;47.104;15.432;2024-03-23T02:38:24;5.20;;;4.00;;
16115;SDS011;8162;47.104;15.432;2024-03-23T02:41:24;5.77;;;3.97;;
16115;SDS011;8162;47.104;15.432;2024-03-23T02:44:25;4.97;;;3.87;;
16115;SDS011;8162;47.104;15.432;2024-03-23T02:47:26;4.07;;;3.60;;
16115;SDS011;8162;47.104;15.432;2024-03-23T02:50:26;4.47;;;3.67;;
16115;SDS011;8162;47.104;15.432;2024-03-23T02:53:27;5.43;;;3.77;;
16115;SDS011;8162;47.104;15.432;2024-03-23T02:56:28;4.90;;;3.97;;
16115;SDS011;8162;47.104;15.432;2024-03-23T02:59:29;5.63;;;3.70;;
16115;SDS011;8162;47.104;15.432;2024-03-23T03:02:29;5.40;;;3.90;;
16115;SDS011;8162;47.104;15.432;2024-03-23T03:05:30;4.37;;;3.70;;
16115;SDS011;8162;47.104;15.432;2024-03-23T03:08:30;6.80;;;3.97;;
16115;SDS011;8162;47.104;15.432;2024-03-23T03:11:31;6.77;;;3.73;;
16115;SDS011;8162;47.104;15.432;2024-03-23T03:14:32;4.70;;;3.73;;
16115;SDS011;8162;47.104;15.432;2024-03-23T03:17:33;5.83;;;4.20;;
16115;SDS011;8162;47.104;15.432;2024-03-23T03:20:34;4.93;;;3.97;;
16115;SDS011;8162;47.104;15.432;2024-03-23T03:23:38;4.20;;;3.80;;
16115;SDS011;8162;47.104;15.432;2024-03-23T03:26:39;3.77;;;3.37;;
16115;SDS011;8162;47.104;15.432;2024-03-23T03:29:40;4.30;;;3.47;;
16115;SDS011;8162;47.104;15.432;2024-03-23T03:32:41;5.53;;;3.90;;
16115;SDS011;8162;47.104;15.432;2024-03-23T03:35:41;4.60;;;3.67;;
16115;SDS011;8162;47.104;15.432;2024-03-23T03:38:43;7.27;;;3.63;;
16115;SDS011;8162;47.104;15.432;2024-03-23T03:41:44;6.67;;;4.00;;
16115;SDS011;8162;47.104;15.432;2024-03-23T03:44:44;4.73;;;3.90;;
16115;SDS011;8162;47.104;15.432;2024-03-23T03:47:45;5.00;;;3.40;;
16115;SDS011;8162;47.104;15.432;2024-03-23T03:50:46;5.10;;;4.50;;
16115;SDS011;8162;47.104;15.432;2024-03-23T03:53:46;4.10;;;3.70;;
16115;SDS011;8162;47.104;15.432;2024-03-23T03:56:47;4.60;;;4.13;;
16115;SDS011;8162;47.104;15.432;2024-03-23T03:59:48;3.57;;;3.27;;
16115;SDS011;8162;47.104;15.432;2024-03-23T04:02:48;5.10;;;3.87;;
16115;SDS011;8162;47.104;15.432;2024-03-23T04:05:50;4.03;;;3.50;;
16115;SDS011;8162;47.104;15.432;2024-03-23T04:08:54;7.40;;;3.77;;
16115;SDS011;8162;47.104;15.432;2024-03-23T04:11:54;4.07;;;3.57;;
16115;SDS011;8162;47.104;15.432;2024-03-23T04:14:55;4.67;;;3.60;;
16115;SDS011;8162;47.104;15.432;2024-03-23T04:17:56;6.90;;;3.80;;
16115;SDS011;8162;47.104;15.432;2024-03-23T04:20:56;5.73;;;3.73;;
16115;SDS011;8162;47.104;15.432;2024-03-23T04:23:57;6.27;;;3.40;;
16115;SDS011;8162;47.104;15.432;2024-03-23T04:26:57;4.37;;;3.57;;
16115;SDS011;8162;47.104;15.432;2024-03-23T04:29:58;5.20;;;3.83;;
16115;SDS011;8162;47.104;15.432;2024-03-23T04:33:01;5.33;;;4.00;;
16115;SDS011;8162;47.104;15.432;2024-03-23T04:36:01;4.40;;;4.00;;
16115;SDS011;8162;47.104;15.432;2024-03-23T04:39:02;4.57;;;4.00;;
16115;SDS011;8162;47.104;15.432;2024-03-23T04:42:03;4.27;;;3.87;;
16115;SDS011;8162;47.104;15.432;2024-03-23T04:45:05;5.83;;;3.80;;
16115;SDS011;8162;47.104;15.432;2024-03-23T04:48:06;4.90;;;3.70;;
16115;SDS011;8162;47.104;15.432;2024-03-23T04:51:07;5.47;;;4.10;;
16115;SDS011;8162;47.104;15.432;2024-03-23T04:54:08;5.20;;;3.70;;
16115;SDS011;8162;47.104;15.432;2024-03-23T04:57:08;4.03;;;3.63;;
16115;SDS011;8162;47.104;15.432;2024-03-23T05:00:09;6.43;;;4.37;;
16115;SDS011;8162;47.104;15.432;2024-03-23T05:03:17;5.83;;;3.33;;
16115;SDS011;8162;47.104;15.432;2024-03-23T05:06:17;6.07;;;3.70;;
16115;SDS011;8162;47.104;15.432;2024-03-23T05:09:18;4.27;;;3.50;;
16115;SDS011;8162;47.104;15.432;2024-03-23T05:12:20;5.83;;;3.90;;
16115;SDS011;8162;47.104;15.432;2024-03-23T05:15:20;4.90;;;3.80;;
16115;SDS011;8162;47.104;15.432;2024-03-23T05:18:21;5.40;;;3.50;;
16115;SDS011;8162;47.104;15.432;2024-03-23T05:21:22;8.93;;;3.70;;
16115;SDS011;8162;47.104;15.432;2024-03-23T05:24:23;4.93;;;3.73;;
16115;SDS011;8162;47.104;15.432;2024-03-23T05:27:23;5.33;;;3.67;;
16115;SDS011;8162;47.104;15.432;2024-03-23T05:30:24;3.63;;;3.20;;
16115;SDS011;8162;47.104;15.432;2024-03-23T05:33:25;5.50;;;4.17;;
16115;SDS011;8162;47.104;15.432;2024-03-23T05:36:26;4.53;;;3.97;;
16115;SDS011;8162;47.104;15.432;2024-03-23T05:39:26;5.03;;;3.87;;
16115;SDS011;8162;47.104;15.432;2024-03-23T05:42:27;4.33;;;3.67;;
16115;SDS011;8162;47.104;15.432;2024-03-23T05:45:28;5.27;;;3.83;;
16115;SDS011;8162;47.104;15.432;2024-03-23T05:48:29;6.97;;;3.97;;
16115;SDS011;8162;47.104;15.432;2024-03-23T05:51:30;7.30;;;4.30;;
16115;SDS011;8162;47.104;15.432;2024-03-23T05:54:31;4.13;;;3.73;;
16115;SDS011;8162;47.104;15.432;2024-03-23T05:57:32;4.93;;;4.07;;
16115;SDS011;8162;47.104;15.432;2024-03-23T06:00:32;4.47;;;4.03;;
16115;SDS011;8162;47.104;15.432;2024-03-23T06:03:33;3.93;;;3.60;;
16115;SDS011;8162;47.104;15.432;2024-03-23T06:06:35;4.23;;;3.70;;
16115;SDS011;8162;47.104;15.432;2024-03-23T06:09:35;5.27;;;3.50;;
16115;SDS011;8162;47.104;15.432;2024-03-23T06:12:36;4.63;;;3.33;;
16115;SDS011;8162;47.104;15.432;2024-03-23T06:15:37;4.47;;;3.60;;
16115;SDS011;8162;47.104;15.432;2024-03-23T06:18:39;3.50;;;3.20;;
16115;SDS011;8162;47.104;15.432;2024-03-23T06:21:42;4.83;;;3.30;;
16115;SDS011;8162;47.104;15.432;2024-03-23T06:24:44;5.53;;;3.40;;
16115;SDS011;8162;47.104;15.432;2024-03-23T06:27:44;3.50;;;3.20;;
16115;SDS011;8162;47.104;15.432;2024-03-23T06:30:45;6.43;;;4.10;;
16115;SDS011;8162;47.104;15.432;2024-03-23T06:33:46;4.03;;;3.63;;
16115;SDS011;8162;47.104;15.432;2024-03-23T06:36:46;4.90;;;3.20;;
16115;SDS011;8162;47.104;15.432;2024-03-23T06:39:47;4.27;;;3.87;;
16115;SDS011;8162;47.104;15.432;2024-03-23T06:42:48;5.67;;;4.30;;
16115;SDS011;8162;47.104;15.432;2024-03-23T06:45:52;4.73;;;4.33;;
16115;SDS011;8162;47.104;15.432;2024-03-23T06:48:54;4.00;;;3.70;;
16115;SDS011;8162;47.104;15.432;2024-03-23T06:51:54;6.03;;;4.37;;
16115;SDS011;8162;47.104;15.432;2024-03-23T06:54:55;4.57;;;3.80;;
16115;SDS011;8162;47.104;15.432;2024-03-23T06:57:55;5.97;;;4.20;;
16115;SDS011;8162;47.104;15.432;2024-03-23T07:00:57;4.07;;;3.67;;
16115;SDS011;8162;47.104;15.432;2024-03-23T07:03:57;6.07;;;4.07;;
16115;SDS011;8162;47.104;15.432;2024-03-23T07:06:58;7.07;;;3.90;;
16115;SDS011;8162;47.104;15.432;2024-03-23T07:09:59;4.00;;;3.47;;
16115;SDS011;8162;47.104;15.432;2024-03-23T07:12:59;4.70;;;3.70;;
16115;SDS011;8162;47.104;15.432;2024-03-23T07:16:00;3.60;;;3.30;;
16115;SDS011;8162;47.104;15.432;2024-03-23T07:19:01;3.80;;;3.40;;
16115;SDS011;8162;47.104;15.432;2024-03-23T07:22:01;4.77;;;3.60;;
16115;SDS011;8162;47.104;15.432;2024-03-23T07:25:02;3.53;;;3.23;;
16115;SDS011;8162;47.104;15.432;2024-03-23T07:28:03;4.87;;;3.20;;
16115;SDS011;8162;47.104;15.432;2024-03-23T07:31:07;4.77;;;3.80;;
16115;SDS011;8162;47.104;15.432;2024-03-23T07:34:09;4.47;;;3.90;;
16115;SDS011;8162;47.104;15.432;2024-03-23T07:37:10;4.93;;;3.73;;
16115;SDS011;8162;47.104;15.432;2024-03-23T07:40:11;5.60;;;4.07;;
16115;SDS011;8162;47.104;15.432;2024-03-23T07:43:12;4.50;;;3.57;;
16115;SDS011;8162;47.104;15.432;2024-03-23T07:46:12;4.60;;;3.73;;
16115;SDS011;8162;47.104;15.432;2024-03-23T07:49:14;5.87;;;3.77;;
16115;SDS011;8162;47.104;15.432;2024-03-23T07:52:15;6.10;;;3.90;;
16115;SDS011;8162;47.104;15.432;2024-03-23T07:55:16;6.90;;;3.67;;
16115;SDS011;8162;47.104;15.432;2024-03-23T07:58:16;5.07;;;3.70;;
16115;SDS011;8162;47.104;15.432;2024-03-23T08:01:17;4.53;;;3.40;;
16115;SDS011;8162;47.104;15.432;2024-03-23T08:04:18;5.43;;;3.43;;
16115;SDS011;8162;47.104;15.432;2024-03-23T08:07:19;3.93;;;3.40;;
16115;SDS011;8162;47.104;15.432;2024-03-23T08:10:20;4.20;;;3.30;;
16115;SDS011;8162;47.104;15.432;2024-03-23T08:13:20;4.83;;;3.30;;
16115;SDS011;8162;47.104;15.432;2024-03-23T08:16:21;7.57;;;3.60;;
16115;SDS011;8162;47.104;15.432;2024-03-23T08:19:22;4.40;;;3.40;;
16115;SDS011;8162;47.104;15.432;2024-03-23T08:22:23;4.40;;;3.30;;
16115;SDS011;8162;47.104;15.432;2024-03-23T08:25:24;5.13;;;3.33;;
16115;SDS011;8162;47.104;15.432;2024-03-23T08:28:25;5.40;;;2.97;;
16115;SDS011;8162;47.104;15.432;2024-03-23T08:31:26;5.07;;;3.63;;
16115;SDS011;8162;47.104;15.432;2024-03-23T08:34:27;5.83;;;3.03;;
16115;SDS011;8162;47.104;15.432;2024-03-23T08:37:28;3.63;;;3.33;;
16115;SDS011;8162;47.104;15.432;2024-03-23T08:40:28;5.77;;;3.63;;
16115;SDS011;8162;47.104;15.432;2024-03-23T08:43:30;3.87;;;2.83;;
16115;SDS011;8162;47.104;15.432;2024-03-23T08:46:32;6.03;;;4.37;;
16115;SDS011;8162;47.104;15.432;2024-03-23T08:49:32;4.87;;;3.33;;
16115;SDS011;8162;47.104;15.432;2024-03-23T08:52:33;3.57;;;3.13;;
16115;SDS011;8162;47.104;15.432;2024-03-23T08:55:34;5.67;;;3.37;;
16115;SDS011;8162;47.104;15.432;2024-03-23T08:58:35;4.30;;;3.17;;
16115;SDS011;8162;47.104;15.432;2024-03-23T09:01:37;3.80;;;3.40;;
16115;SDS011;8162;47.104;15.432;2024-03-23T09:04:38;5.40;;;3.47;;
16115;SDS011;8162;47.104;15.432;2024-03-23T09:07:39;2.63;;;2.30;;
16115;SDS011;8162;47.104;15.432;2024-03-23T09:10:40;7.57;;;3.37;;
16115;SDS011;8162;47.104;15.432;2024-03-23T09:13:41;5.40;;;3.00;;
16115;SDS011;8162;47.104;15.432;2024-03-23T09:16:41;7.60;;;3.10;;
16115;SDS011;8162;47.104;15.432;2024-03-23T09:19:42;4.97;;;3.70;;
16115;SDS011;8162;47.104;15.432;2024-03-23T09:22:43;7.53;;;4.23;;
16115;SDS011;8162;47.104;15.432;2024-03-23T09:25:44;5.73;;;3.90;;
16115;SDS011;8162;47.104;15.432;2024-03-23T09:28:45;5.40;;;3.27;;
16115;SDS011;8162;47.104;15.432;2024-03-23T09:31:51;6.83;;;4.63;;
16115;SDS011;8162;47.104;15.432;2024-03-23T09:34:52;9.70;;;4.80;;
16115;SDS011;8162;47.104;15.432;2024-03-23T09:37:52;9.07;;;6.20;;
16115;SDS011;8162;47.104;15.432;2024-03-23T09:40:53;9.27;;;6.10;;
16115;SDS011;8162;47.104;15.432;2024-03-23T09:43:54;8.70;;;6.37;;
16115;SDS011;8162;47.104;15.432;2024-03-23T09:46:55;9.20;;;6.83;;
16115;SDS011;8162;47.104;15.432;2024-03-23T09:49:56;7.20;;;6.50;;
16115;SDS011;8162;47.104;15.432;2024-03-23T09:52:57;10.77;;;6.97;;
16115;SDS011;8162;47.104;15.432;2024-03-23T09:55:57;9.00;;;6.63;;
16115;SDS011;8162;47.104;15.432;2024-03-23T09:59:01;7.43;;;6.43;;
16115;SDS011;8162;47.104;15.432;2024-03-23T10:02:03;8.27;;;5.60;;
16115;SDS011;8162;47.104;15.432;2024-03-23T10:05:05;7.23;;;5.30;;
16115;SDS011;8162;47.104;15.432;2024-03-23T10:08:23;6.17;;;4.47;;
16115;SDS011;8162;47.104;15.432;2024-03-23T10:11:25;6.63;;;5.00;;
16115;SDS011;8162;47.104;15.432;2024-03-23T10:14:31;5.30;;;4.53;;
16115;SDS011;8162;47.104;15.432;2024-03-23T10:17:31;6.80;;;4.80;;
16115;SDS011;8162;47.104;15.432;2024-03-23T10:20:32;5.63;;;4.63;;
16115;SDS011;8162;47.104;15.432;2024-03-23T10:23:33;8.63;;;4.03;;
16115;SDS011;8162;47.104;15.432;2024-03-23T10:26:34;3.23;;;2.93;;
16115;SDS011;8162;47.104;15.432;2024-03-23T10:29:36;4.67;;;3.13;;
16115;SDS011;8162;47.104;15.432;2024-03-23T10:32:37;7.80;;;2.90;;
16115;SDS011;8162;47.104;15.432;2024-03-23T10:35:38;4.17;;;3.00;;
16115;SDS011;8162;47.104;15.432;2024-03-23T10:38:40;3.67;;;3.37;;
16115;SDS011;8162;47.104;15.432;2024-03-23T10:41:42;3.33;;;2.93;;
16115;SDS011;8162;47.104;15.432;2024-03-23T10:44:44;3.37;;;2.87;;
16115;SDS011;8162;47.104;15.432;2024-03-23T10:47:45;5.17;;;2.73;;
16115;SDS011;8162;47.104;15.432;2024-03-23T10:50:47;2.73;;;2.47;;
16115;SDS011;8162;47.104;15.432;2024-03-23T10:53:48;3.07;;;2.77;;
16115;SDS011;8162;47.104;15.432;2024-03-23T10:56:50;3.57;;;3.00;;
16115;SDS011;8162;47.104;15.432;2024-03-23T11:00:07;3.80;;;3.40;;
16115;SDS011;8162;47.104;15.432;2024-03-23T11:03:32;4.93;;;3.23;;
16115;SDS011;8162;47.104;15.432;2024-03-23T11:06:38;4.50;;;3.30;;
16115;SDS011;8162;47.104;15.432;2024-03-23T11:09:42;4.87;;;3.37;;
16115;SDS011;8162;47.104;15.432;2024-03-23T11:12:46;3.13;;;2.63;;
16115;SDS011;8162;47.104;15.432;2024-03-23T11:15:47;2.97;;;2.67;;
16115;SDS011;8162;47.104;15.432;2024-03-23T11:18:47;3.67;;;3.20;;
16115;SDS011;8162;47.104;15.432;2024-03-23T11:21:52;3.43;;;2.83;;
16115;SDS011;8162;47.104;15.432;2024-03-23T11:24:54;4.33;;;3.00;;
16115;SDS011;8162;47.104;15.432;2024-03-23T11:27:55;2.57;;;2.37;;
16115;SDS011;8162;47.104;15.432;2024-03-23T11:30:57;4.57;;;3.37;;
16115;SDS011;8162;47.104;15.432;2024-03-23T11:34:02;3.33;;;3.03;;
16115;SDS011;8162;47.104;15.432;2024-03-23T11:37:06;5.20;;;3.00;;
16115;SDS011;8162;47.104;15.432;2024-03-23T11:40:19;3.40;;;3.10;;
16115;SDS011;8162;47.104;15.432;2024-03-23T11:43:20;4.17;;;2.73;;
16115;SDS011;8162;47.104;15.432;2024-03-23T11:46:22;5.43;;;2.93;;
16115;SDS011;8162;47.104;15.432;2024-03-23T11:49:23;7.13;;;3.67;;
16115;SDS011;8162;47.104;15.432;2024-03-23T11:52:25;3.47;;;2.83;;
16115;SDS011;8162;47.104;15.432;2024-03-23T11:55:25;4.53;;;3.60;;
16115;SDS011;8162;47.104;15.432;2024-03-23T11:58:27;4.70;;;3.33;;
16115;SDS011;8162;47.104;15.432;2024-03-23T12:01:28;4.17;;;3.53;;
16115;SDS011;8162;47.104;15.432;2024-03-23T12:04:29;4.00;;;3.60;;
16115;SDS011;8162;47.104;15.432;2024-03-23T12:07:29;4.20;;;3.77;;
16115;SDS011;8162;47.104;15.432;2024-03-23T12:10:31;4.83;;;4.00;;
16115;SDS011;8162;47.104;15.432;2024-03-23T12:13:32;4.40;;;3.70;;
16115;SDS011;8162;47.104;15.432;2024-03-23T12:16:33;4.23;;;3.00;;
16115;SDS011;8162;47.104;15.432;2024-03-23T12:19:34;4.13;;;3.50;;
16115;SDS011;8162;47.104;15.432;2024-03-23T12:22:35;3.73;;;3.23;;
16115;SDS011;8162;47.104;15.432;2024-03-23T12:25:37;3.40;;;3.10;;
16115;SDS011;8162;47.104;15.432;2024-03-23T12:28:39;3.67;;;3.30;;
16115;SDS011;8162;47.104;15.432;2024-03-23T12:31:40;4.30;;;3.93;;
16115;SDS011;8162;47.104;15.432;2024-03-23T12:34:41;5.90;;;3.47;;
16115;SDS011;8162;47.104;15.432;2024-03-23T12:37:43;5.87;;;3.50;;
16115;SDS011;8162;47.104;15.432;2024-03-23T12:40:47;3.17;;;2.90;;
16115;SDS011;8162;47.104;15.432;2024-03-23T12:43:48;4.03;;;3.63;;
16115;SDS011;8162;47.104;15.432;2024-03-23T12:46:49;3.40;;;3.10;;
16115;SDS011;8162;47.104;15.432;2024-03-23T12:49:50;4.03;;;3.53;;
16115;SDS011;8162;47.104;15.432;2024-03-23T12:52:52;4.97;;;3.70;;
16115;SDS011;8162;47.104;15.432;2024-03-23T12:55:53;3.40;;;3.07;;
16115;SDS011;8162;47.104;15.432;2024-03-23T12:58:54;3.77;;;3.07;;
16115;SDS011;8162;47.104;15.432;2024-03-23T13:01:57;3.57;;;3.27;;
16115;SDS011;8162;47.104;15.432;2024-03-23T13:04:57;2.97;;;2.77;;
16115;SDS011;8162;47.104;15.432;2024-03-23T13:07:58;3.77;;;3.40;;
16115;SDS011;8162;47.104;15.432;2024-03-23T13:10:59;3.20;;;2.90;;
16115;SDS011;8162;47.104;15.432;2024-03-23T13:14:00;3.67;;;3.13;;
16115;SDS011;8162;47.104;15.432;2024-03-23T13:17:01;4.10;;;3.03;;
16115;SDS011;8162;47.104;15.432;2024-03-23T13:20:02;3.77;;;3.30;;
16115;SDS011;8162;47.104;15.432;2024-03-23T13:23:04;3.90;;;3.00;;
16115;SDS011;8162;47.104;15.432;2024-03-23T13:26:04;6.13;;;3.47;;
16115;SDS011;8162;47.104;15.432;2024-03-23T13:29:05;3.20;;;2.77;;
16115;SDS011;8162;47.104;15.432;2024-03-23T13:32:06;3.27;;;2.60;;
16115;SDS011;8162;47.104;15.432;2024-03-23T13:35:07;3.27;;;2.70;;
16115;SDS011;8162;47.104;15.432;2024-03-23T13:38:08;2.90;;;2.70;;
16115;SDS011;8162;47.104;15.432;2024-03-23T13:41:09;2.63;;;2.42;;
16115;SDS011;8162;47.104;15.432;2024-03-23T13:44:13;2.63;;;2.42;;
16115;SDS011;8162;47.104;15.432;2024-03-23T13:47:14;2.58;;;2.38;;
16115;SDS011;8162;47.104;15.432;2024-03-23T13:50:15;2.60;;;2.30;;
16115;SDS011;8162;47.104;15.432;2024-03-23T13:53:17;3.17;;;2.38;;
16115;SDS011;8162;47.104;15.432;2024-03-23T13:56:18;2.22;;;2.03;;
16115;SDS011;8162;47.104;15.432;2024-03-23T13:59:19;2.67;;;2.47;;
16115;SDS011;8162;47.104;15.432;2024-03-23T14:02:20;3.00;;;2.70;;
16115;SDS011;8162;47.104;15.432;2024-03-23T14:05:21;3.15;;;2.80;;
16115;SDS011;8162;47.104;15.432;2024-03-23T14:08:25;3.67;;;3.30;;
16115;SDS011;8162;47.104;15.432;2024-03-23T14:11:27;3.00;;;2.80;;
16115;SDS011;8162;47.104;15.432;2024-03-23T14:14:28;3.35;;;3.05;;
16115;SDS011;8162;47.104;15.432;2024-03-23T14:17:30;3.17;;;2.75;;
16115;SDS011;8162;47.104;15.432;2024-03-23T14:20:31;3.20;;;2.90;;
16115;SDS011;8162;47.104;15.432;2024-03-23T14:23:32;4.40;;;3.57;;
16115;SDS011;8162;47.104;15.432;2024-03-23T14:26:33;5.87;;;3.37;;
16115;SDS011;8162;47.104;15.432;2024-03-23T14:29:34;5.00;;;3.07;;
16115;SDS011;8162;47.104;15.432;2024-03-23T14:32:35;2.63;;;2.53;;
16115;SDS011;8162;47.104;15.432;2024-03-23T14:35:37;3.40;;;3.10;;
16115;SDS011;8162;47.104;15.432;2024-03-23T14:38:38;4.23;;;2.87;;
16115;SDS011;8162;47.104;15.432;2024-03-23T14:41:39;5.33;;;3.20;;
16115;SDS011;8162;47.104;15.432;2024-03-23T14:44:40;4.23;;;3.70;;
16115;SDS011;8162;47.104;15.432;2024-03-23T14:47:42;4.40;;;3.40;;
16115;SDS011;8162;47.104;15.432;2024-03-23T14:50:43;3.33;;;3.07;;
16115;SDS011;8162;47.104;15.432;2024-03-23T14:53:45;3.60;;;2.97;;
16115;SDS011;8162;47.104;15.432;2024-03-23T14:56:46;4.20;;;3.47;;
16115;SDS011;8162;47.104;15.432;2024-03-23T14:59:47;4.33;;;3.27;;
16115;SDS011;8162;47.104;15.432;2024-03-23T15:02:48;3.07;;;2.70;;
16115;SDS011;8162;47.104;15.432;2024-03-23T15:05:53;3.30;;;2.97;;
16115;SDS011;8162;47.104;15.432;2024-03-23T15:08:54;4.33;;;1.60;;
16115;SDS011;8162;47.104;15.432;2024-03-23T15:11:55;3.73;;;1.40;;
16115;SDS011;8162;47.104;15.432;2024-03-23T15:14:56;1.87;;;1.27;;
16115;SDS011;8162;47.104;15.432;2024-03-23T15:17:57;4.87;;;1.27;;
16115;SDS011;8162;47.104;15.432;2024-03-23T15:20:59;3.33;;;1.10;;
16115;SDS011;8162;47.104;15.432;2024-03-23T15:24:05;2.37;;;0.80;;
16115;SDS011;8162;47.104;15.432;2024-03-23T15:27:06;1.13;;;0.50;;
16115;SDS011;8162;47.104;15.432;2024-03-23T15:30:09;0.90;;;0.50;;
16115;SDS011;8162;47.104;15.432;2024-03-23T15:33:10;3.13;;;0.60;;
16115;SDS011;8162;47.104;15.432;2024-03-23T15:36:11;0.87;;;0.40;;
16115;SDS011;8162;47.104;15.432;2024-03-23T15:39:12;5.70;;;0.90;;
16115;SDS011;8162;47.104;15.432;2024-03-23T15:42:14;2.20;;;0.40;;
16115;SDS011;8162;47.104;15.432;2024-03-23T15:45:15;1.17;;;0.77;;
16115;SDS011;8162;47.104;15.432;2024-03-23T15:48:16;0.50;;;0.43;;
16115;SDS011;8162;47.104;15.432;2024-03-23T15:51:18;1.70;;;0.43;;
16115;SDS011;8162;47.104;15.432;2024-03-23T15:54:19;2.50;;;0.30;;
16115;SDS011;8162;47.104;15.432;2024-03-23T15:57:22;1.10;;;0.40;;
16115;SDS011;8162;47.104;15.432;2024-03-23T16:00:24;3.63;;;0.40;;
16115;SDS011;8162;47.104;15.432;2024-03-23T16:03:25;0.73;;;0.40;;
16115;SDS011;8162;47.104;15.432;2024-03-23T16:06:27;1.00;;;0.30;;
16115;SDS011;8162;47.104;15.432;2024-03-23T16:09:28;1.70;;;0.30;;
16115;SDS011;8162;47.104;15.432;2024-03-23T16:12:29;1.17;;;0.30;;
16115;SDS011;8162;47.104;15.432;2024-03-23T16:15:30;2.13;;;0.30;;
16115;SDS011;8162;47.104;15.432;2024-03-23T16:18:30;1.53;;;0.30;;
16115;SDS011;8162;47.104;15.432;2024-03-23T16:21:31;0.20;;;0.20;;
16115;SDS011;8162;47.104;15.432;2024-03-23T16:24:32;0.80;;;0.80;;
16115;SDS011;8162;47.104;15.432;2024-03-23T16:27:32;0.93;;;0.30;;
16115;SDS011;8162;47.104;15.432;2024-03-23T16:30:33;0.30;;;0.30;;
16115;SDS011;8162;47.104;15.432;2024-03-23T16:33:34;0.20;;;0.20;;
16115;SDS011;8162;47.104;15.432;2024-03-23T16:36:35;1.70;;;0.30;;
16115;SDS011;8162;47.104;15.432;2024-03-23T16:39:36;0.50;;;0.20;;
16115;SDS011;8162;47.104;15.432;2024-03-23T16:42:37;0.40;;;0.40;;
16115;SDS011;8162;47.104;15.432;2024-03-23T16:45:39;0.47;;;0.40;;
16115;SDS011;8162;47.104;15.432;2024-03-23T16:48:39;0.20;;;0.20;;
16115;SDS011;8162;47.104;15.432;2024-03-23T16:51:41;0.30;;;0.30;;
16115;SDS011;8162;47.104;15.432;2024-03-23T16:54:42;1.07;;;0.50;;
16115;SDS011;8162;47.104;15.432;2024-03-23T16:57:43;0.70;;;0.40;;
16115;SDS011;8162;47.104;15.432;2024-03-23T17:00:43;1.03;;;0.50;;
16115;SDS011;8162;47.104;15.432;2024-03-23T17:03:46;0.70;;;0.50;;
16115;SDS011;8162;47.104;15.432;2024-03-23T17:06:48;1.30;;;1.20;;
16115;SDS011;8162;47.104;15.432;2024-03-23T17:09:49;1.50;;;0.67;;
16115;SDS011;8162;47.104;15.432;2024-03-23T17:12:50;0.47;;;0.47;;
16115;SDS011;8162;47.104;15.432;2024-03-23T17:15:50;0.60;;;0.60;;
16115;SDS011;8162;47.104;15.432;2024-03-23T17:18:51;0.43;;;0.43;;
16115;SDS011;8162;47.104;15.432;2024-03-23T17:21:52;0.60;;;0.50;;
16115;SDS011;8162;47.104;15.432;2024-03-23T17:24:53;0.60;;;0.60;;
16115;SDS011;8162;47.104;15.432;2024-03-23T17:27:53;0.50;;;0.50;;
16115;SDS011;8162;47.104;15.432;2024-03-23T17:30:54;1.10;;;0.70;;
16115;SDS011;8162;47.104;15.432;2024-03-23T17:33:55;0.30;;;0.30;;
16115;SDS011;8162;47.104;15.432;2024-03-23T17:36:56;0.90;;;0.43;;
16115;SDS011;8162;47.104;15.432;2024-03-23T17:39:56;0.37;;;0.37;;
16115;SDS011;8162;47.104;15.432;2024-03-23T17:42:57;0.53;;;0.53;;
16115;SDS011;8162;47.104;15.432;2024-03-23T17:45:58;0.60;;;0.60;;
16115;SDS011;8162;47.104;15.432;2024-03-23T17:48:58;1.20;;;0.57;;
16115;SDS011;8162;47.104;15.432;2024-03-23T17:52:00;1.03;;;0.93;;
16115;SDS011;8162;47.104;15.432;2024-03-23T17:55:07;1.10;;;0.50;;
16115;SDS011;8162;47.104;15.432;2024-03-23T17:58:08;0.80;;;0.80;;
16115;SDS011;8162;47.104;15.432;2024-03-23T18:01:09;0.73;;;0.73;;
16115;SDS011;8162;47.104;15.432;2024-03-23T18:04:09;0.90;;;0.60;;
16115;SDS011;8162;47.104;15.432;2024-03-23T18:07:10;1.00;;;0.60;;
16115;SDS011;8162;47.104;15.432;2024-03-23T18:10:11;0.50;;;0.50;;
16115;SDS011;8162;47.104;15.432;2024-03-23T18:13:11;0.40;;;0.40;;
16115;SDS011;8162;47.104;15.432;2024-03-23T18:16:12;0.87;;;0.60;;
16115;SDS011;8162;47.104;15.432;2024-03-23T18:19:13;0.67;;;0.60;;
16115;SDS011;8162;47.104;15.432;2024-03-23T18:22:13;1.20;;;1.10;;
16115;SDS011;8162;47.104;15.432;2024-03-23T18:25:14;0.70;;;0.70;;
16115;SDS011;8162;47.104;15.432;2024-03-23T18:28:15;0.87;;;0.60;;
16115;SDS011;8162;47.104;15.432;2024-03-23T18:31:15;0.60;;;0.60;;
16115;SDS011;8162;47.104;15.432;2024-03-23T18:34:16;0.50;;;0.50;;
16115;SDS011;8162;47.104;15.432;2024-03-23T18:37:17;0.70;;;0.60;;
16115;SDS011;8162;47.104;15.432;2024-03-23T18:40:18;0.60;;;0.60;;
16115;SDS011;8162;47.104;15.432;2024-03-23T18:43:19;1.97;;;0.60;;
16115;SDS011;8162;47.104;15.432;2024-03-23T18:46:19;1.70;;;0.63;;
16115;SDS011;8162;47.104;15.432;2024-03-23T18:49:20;0.80;;;0.70;;
16115;SDS011;8162;47.104;15.432;2024-03-23T18:52:21;0.67;;;0.67;;
16115;SDS011;8162;47.104;15.432;2024-03-23T18:55:23;2.67;;;0.80;;
16115;SDS011;8162;47.104;15.432;2024-03-23T18:58:23;1.03;;;0.93;;
16115;SDS011;8162;47.104;15.432;2024-03-23T19:01:24;0.70;;;0.70;;
16115;SDS011;8162;47.104;15.432;2024-03-23T19:04:24;1.10;;;0.63;;